SAEZ/EZE METAR and TAF weather

Enter ICAO airport designator
Station Type Date Time Source
SAEZ METAR 2019/09/20 21:00 UTC NOAA

SAEZ 202100Z 26012KT CAVOK 18/M05 Q1017 NOSIG


Station Type Date Time Source
SAEZ Decoded METAR 2019/09/20 21:00 UTC NOAA

Ezeiza Aerodrome, Argentina (SAEZ) 34-49S 058-32W 20M
Sep 20, 2019 - 05:00 PM EDT / 2019.09.20 2100 UTC
Wind: from the W (260 degrees) at 14 MPH (12 KT):0
Visibility: greater than 7 mile(s):0
Temperature: 64 F (18 C)
Dew Point: 23 F (-5 C)
Relative Humidity: 20%
Pressure (altimeter): 30.03 in. Hg (1017 hPa)
ob: SAEZ 202100Z 26012KT CAVOK 18/M05 Q1017 NOSIG
cycle: 21

Station Type Date Time Source
SAEZ TAF 2019/09/20 18:18 UTC NOAA

TAF TAF SAEZ 201700Z 2018/2118 28015G25KT CAVOK TX24/2118Z TN04/2109Z
BECMG 2020/2023 29005KT
BECMG 2112/2115 27015KT

Example: see airport list